sensor_id;sensor_type;location;lat;lon;timestamp;P1;durP1;ratioP1;P2;durP2;ratioP2
12976;SDS011;6553;48.412;9.514;2023-07-31T00:00:27;1.75;;;1.30;;
12976;SDS011;6553;48.412;9.514;2023-07-31T00:02:53;1.80;;;1.30;;
12976;SDS011;6553;48.412;9.514;2023-07-31T00:05:19;2.38;;;1.40;;
12976;SDS011;6553;48.412;9.514;2023-07-31T00:07:46;1.52;;;1.40;;
12976;SDS011;6553;48.412;9.514;2023-07-31T00:10:12;1.42;;;1.17;;
12976;SDS011;6553;48.412;9.514;2023-07-31T00:12:38;1.33;;;1.23;;
12976;SDS011;6553;48.412;9.514;2023-07-31T00:15:09;1.33;;;1.13;;
12976;SDS011;6553;48.412;9.514;2023-07-31T00:17:35;2.13;;;1.30;;
12976;SDS011;6553;48.412;9.514;2023-07-31T00:20:02;1.50;;;1.20;;
12976;SDS011;6553;48.412;9.514;2023-07-31T00:22:28;1.90;;;1.33;;
12976;SDS011;6553;48.412;9.514;2023-07-31T00:24:54;1.02;;;1.00;;
12976;SDS011;6553;48.412;9.514;2023-07-31T00:27:21;2.13;;;1.35;;
12976;SDS011;6553;48.412;9.514;2023-07-31T00:29:47;1.02;;;1.00;;
12976;SDS011;6553;48.412;9.514;2023-07-31T00:32:13;1.70;;;1.27;;
12976;SDS011;6553;48.412;9.514;2023-07-31T00:34:38;1.20;;;1.10;;
12976;SDS011;6553;48.412;9.514;2023-07-31T00:37:04;1.55;;;1.17;;
12976;SDS011;6553;48.412;9.514;2023-07-31T00:39:30;1.13;;;1.02;;
12976;SDS011;6553;48.412;9.514;2023-07-31T00:41:56;1.65;;;1.33;;
12976;SDS011;6553;48.412;9.514;2023-07-31T00:44:22;1.40;;;1.00;;
12976;SDS011;6553;48.412;9.514;2023-07-31T00:46:48;1.48;;;1.20;;
12976;SDS011;6553;48.412;9.514;2023-07-31T00:49:14;1.27;;;1.17;;
12976;SDS011;6553;48.412;9.514;2023-07-31T00:51:41;1.45;;;1.20;;
12976;SDS011;6553;48.412;9.514;2023-07-31T00:54:07;1.05;;;0.95;;
12976;SDS011;6553;48.412;9.514;2023-07-31T00:56:33;1.25;;;1.15;;
12976;SDS011;6553;48.412;9.514;2023-07-31T00:59:00;1.25;;;1.13;;
12976;SDS011;6553;48.412;9.514;2023-07-31T01:01:25;1.40;;;1.30;;
12976;SDS011;6553;48.412;9.514;2023-07-31T01:03:51;1.50;;;1.40;;
12976;SDS011;6553;48.412;9.514;2023-07-31T01:09:19;1.13;;;1.10;;
12976;SDS011;6553;48.412;9.514;2023-07-31T01:12:16;1.60;;;1.00;;
12976;SDS011;6553;48.412;9.514;2023-07-31T01:15:02;1.38;;;1.25;;
12976;SDS011;6553;48.412;9.514;2023-07-31T01:17:36;1.10;;;1.10;;
12976;SDS011;6553;48.412;9.514;2023-07-31T01:20:03;1.40;;;1.00;;
12976;SDS011;6553;48.412;9.514;2023-07-31T01:22:49;1.40;;;1.00;;
12976;SDS011;6553;48.412;9.514;2023-07-31T01:31:09;1.20;;;1.10;;
12976;SDS011;6553;48.412;9.514;2023-07-31T01:33:41;1.30;;;1.20;;
12976;SDS011;6553;48.412;9.514;2023-07-31T01:36:07;1.70;;;1.10;;
12976;SDS011;6553;48.412;9.514;2023-07-31T01:38:33;1.23;;;1.10;;
12976;SDS011;6553;48.412;9.514;2023-07-31T01:41:01;1.42;;;1.20;;
12976;SDS011;6553;48.412;9.514;2023-07-31T01:43:26;1.58;;;1.30;;
12976;SDS011;6553;48.412;9.514;2023-07-31T01:45:52;1.25;;;1.15;;
12976;SDS011;6553;48.412;9.514;2023-07-31T01:48:18;1.17;;;1.08;;
12976;SDS011;6553;48.412;9.514;2023-07-31T01:50:44;1.27;;;1.17;;
12976;SDS011;6553;48.412;9.514;2023-07-31T01:53:10;1.65;;;1.55;;
12976;SDS011;6553;48.412;9.514;2023-07-31T01:55:37;1.25;;;1.15;;
12976;SDS011;6553;48.412;9.514;2023-07-31T01:58:03;1.05;;;1.00;;
12976;SDS011;6553;48.412;9.514;2023-07-31T02:00:29;1.10;;;1.00;;
12976;SDS011;6553;48.412;9.514;2023-07-31T02:02:54;1.40;;;1.25;;
12976;SDS011;6553;48.412;9.514;2023-07-31T02:05:20;1.13;;;1.02;;
12976;SDS011;6553;48.412;9.514;2023-07-31T02:07:46;1.40;;;1.10;;
12976;SDS011;6553;48.412;9.514;2023-07-31T02:10:11;0.90;;;0.90;;
12976;SDS011;6553;48.412;9.514;2023-07-31T02:12:37;1.88;;;1.58;;
12976;SDS011;6553;48.412;9.514;2023-07-31T02:15:03;1.20;;;1.10;;
12976;SDS011;6553;48.412;9.514;2023-07-31T02:17:29;1.20;;;1.10;;
12976;SDS011;6553;48.412;9.514;2023-07-31T02:19:55;1.23;;;1.13;;
12976;SDS011;6553;48.412;9.514;2023-07-31T02:22:21;1.30;;;1.10;;
12976;SDS011;6553;48.412;9.514;2023-07-31T02:24:46;1.60;;;1.35;;
12976;SDS011;6553;48.412;9.514;2023-07-31T02:27:12;1.23;;;1.13;;
12976;SDS011;6553;48.412;9.514;2023-07-31T02:29:38;1.30;;;1.20;;
12976;SDS011;6553;48.412;9.514;2023-07-31T02:32:03;1.23;;;1.10;;
12976;SDS011;6553;48.412;9.514;2023-07-31T02:34:30;1.23;;;1.13;;
12976;SDS011;6553;48.412;9.514;2023-07-31T02:36:56;1.30;;;1.25;;
12976;SDS011;6553;48.412;9.514;2023-07-31T02:39:21;1.02;;;1.02;;
12976;SDS011;6553;48.412;9.514;2023-07-31T02:41:47;1.10;;;1.00;;
12976;SDS011;6553;48.412;9.514;2023-07-31T02:44:13;1.42;;;1.33;;
12976;SDS011;6553;48.412;9.514;2023-07-31T02:46:39;2.60;;;1.00;;
12976;SDS011;6553;48.412;9.514;2023-07-31T02:49:05;1.33;;;1.23;;
12976;SDS011;6553;48.412;9.514;2023-07-31T02:51:31;1.42;;;1.17;;
12976;SDS011;6553;48.412;9.514;2023-07-31T02:53:57;1.52;;;1.10;;
12976;SDS011;6553;48.412;9.514;2023-07-31T02:56:22;1.10;;;1.00;;
12976;SDS011;6553;48.412;9.514;2023-07-31T02:58:48;1.38;;;1.27;;
12976;SDS011;6553;48.412;9.514;2023-07-31T03:01:14;0.85;;;0.85;;
12976;SDS011;6553;48.412;9.514;2023-07-31T03:03:41;1.20;;;1.20;;
12976;SDS011;6553;48.412;9.514;2023-07-31T03:06:07;0.90;;;0.90;;
12976;SDS011;6553;48.412;9.514;2023-07-31T03:08:33;1.15;;;1.05;;
12976;SDS011;6553;48.412;9.514;2023-07-31T03:10:58;1.45;;;1.02;;
12976;SDS011;6553;48.412;9.514;2023-07-31T03:13:24;1.00;;;1.00;;
12976;SDS011;6553;48.412;9.514;2023-07-31T03:15:50;1.00;;;0.90;;
12976;SDS011;6553;48.412;9.514;2023-07-31T03:18:16;1.20;;;1.10;;
12976;SDS011;6553;48.412;9.514;2023-07-31T03:20:42;1.25;;;1.15;;
12976;SDS011;6553;48.412;9.514;2023-07-31T03:23:11;1.13;;;1.02;;
12976;SDS011;6553;48.412;9.514;2023-07-31T03:25:37;0.90;;;0.90;;
12976;SDS011;6553;48.412;9.514;2023-07-31T03:28:02;0.95;;;0.90;;
12976;SDS011;6553;48.412;9.514;2023-07-31T03:30:29;1.00;;;1.00;;
12976;SDS011;6553;48.412;9.514;2023-07-31T03:32:55;1.00;;;1.00;;
12976;SDS011;6553;48.412;9.514;2023-07-31T03:35:21;1.00;;;1.00;;
12976;SDS011;6553;48.412;9.514;2023-07-31T03:37:47;1.10;;;1.00;;
12976;SDS011;6553;48.412;9.514;2023-07-31T03:40:12;1.08;;;0.98;;
12976;SDS011;6553;48.412;9.514;2023-07-31T03:42:38;1.40;;;1.00;;
12976;SDS011;6553;48.412;9.514;2023-07-31T03:45:04;1.02;;;1.00;;
12976;SDS011;6553;48.412;9.514;2023-07-31T03:47:31;1.10;;;1.00;;
12976;SDS011;6553;48.412;9.514;2023-07-31T03:49:56;1.17;;;1.13;;
12976;SDS011;6553;48.412;9.514;2023-07-31T03:52:22;1.30;;;1.20;;
12976;SDS011;6553;48.412;9.514;2023-07-31T03:54:48;1.25;;;1.08;;
12976;SDS011;6553;48.412;9.514;2023-07-31T03:57:14;1.25;;;1.15;;
12976;SDS011;6553;48.412;9.514;2023-07-31T03:59:39;1.40;;;1.23;;
12976;SDS011;6553;48.412;9.514;2023-07-31T04:02:05;1.30;;;1.20;;
12976;SDS011;6553;48.412;9.514;2023-07-31T04:04:31;1.10;;;1.00;;
12976;SDS011;6553;48.412;9.514;2023-07-31T04:06:56;1.35;;;0.98;;
12976;SDS011;6553;48.412;9.514;2023-07-31T04:09:22;1.25;;;1.15;;
12976;SDS011;6553;48.412;9.514;2023-07-31T04:11:48;1.17;;;1.08;;
12976;SDS011;6553;48.412;9.514;2023-07-31T04:14:13;1.30;;;1.20;;
12976;SDS011;6553;48.412;9.514;2023-07-31T04:16:39;1.20;;;1.10;;
12976;SDS011;6553;48.412;9.514;2023-07-31T04:19:05;1.23;;;1.13;;
12976;SDS011;6553;48.412;9.514;2023-07-31T04:21:31;1.20;;;1.00;;
12976;SDS011;6553;48.412;9.514;2023-07-31T04:23:56;1.77;;;1.00;;
12976;SDS011;6553;48.412;9.514;2023-07-31T04:26:23;1.40;;;1.25;;
12976;SDS011;6553;48.412;9.514;2023-07-31T04:28:49;1.30;;;1.20;;
12976;SDS011;6553;48.412;9.514;2023-07-31T04:31:14;1.63;;;1.02;;
12976;SDS011;6553;48.412;9.514;2023-07-31T04:33:40;1.00;;;1.00;;
12976;SDS011;6553;48.412;9.514;2023-07-31T04:36:06;1.30;;;1.20;;
12976;SDS011;6553;48.412;9.514;2023-07-31T04:38:32;1.40;;;1.30;;
12976;SDS011;6553;48.412;9.514;2023-07-31T04:40:57;1.02;;;1.02;;
12976;SDS011;6553;48.412;9.514;2023-07-31T04:43:23;1.30;;;1.20;;
12976;SDS011;6553;48.412;9.514;2023-07-31T04:45:49;1.40;;;1.30;;
12976;SDS011;6553;48.412;9.514;2023-07-31T04:48:15;1.40;;;1.30;;
12976;SDS011;6553;48.412;9.514;2023-07-31T04:50:41;1.48;;;1.38;;
12976;SDS011;6553;48.412;9.514;2023-07-31T04:53:07;1.50;;;1.40;;
12976;SDS011;6553;48.412;9.514;2023-07-31T04:55:33;1.13;;;1.13;;
12976;SDS011;6553;48.412;9.514;2023-07-31T04:57:58;1.52;;;1.42;;
12976;SDS011;6553;48.412;9.514;2023-07-31T05:00:24;1.50;;;1.40;;
12976;SDS011;6553;48.412;9.514;2023-07-31T05:02:50;1.67;;;1.58;;
12976;SDS011;6553;48.412;9.514;2023-07-31T05:05:16;1.90;;;1.58;;
12976;SDS011;6553;48.412;9.514;2023-07-31T05:07:42;1.60;;;1.50;;
12976;SDS011;6553;48.412;9.514;2023-07-31T05:10:07;1.50;;;1.40;;
12976;SDS011;6553;48.412;9.514;2023-07-31T05:12:34;1.35;;;1.25;;
12976;SDS011;6553;48.412;9.514;2023-07-31T05:14:59;1.63;;;1.52;;
12976;SDS011;6553;48.412;9.514;2023-07-31T05:17:25;1.50;;;1.40;;
12976;SDS011;6553;48.412;9.514;2023-07-31T05:19:51;3.38;;;1.60;;
12976;SDS011;6553;48.412;9.514;2023-07-31T05:22:16;1.50;;;1.20;;
12976;SDS011;6553;48.412;9.514;2023-07-31T05:24:42;1.40;;;1.30;;
12976;SDS011;6553;48.412;9.514;2023-07-31T05:27:08;1.50;;;1.40;;
12976;SDS011;6553;48.412;9.514;2023-07-31T05:29:34;1.65;;;1.55;;
12976;SDS011;6553;48.412;9.514;2023-07-31T05:32:00;1.60;;;1.50;;
12976;SDS011;6553;48.412;9.514;2023-07-31T05:34:26;1.30;;;1.20;;
12976;SDS011;6553;48.412;9.514;2023-07-31T05:36:52;1.80;;;1.42;;
12976;SDS011;6553;48.412;9.514;2023-07-31T05:39:18;1.35;;;1.25;;
12976;SDS011;6553;48.412;9.514;2023-07-31T05:41:44;1.40;;;1.30;;
12976;SDS011;6553;48.412;9.514;2023-07-31T05:44:10;1.13;;;1.13;;
12976;SDS011;6553;48.412;9.514;2023-07-31T05:46:36;1.40;;;1.30;;
12976;SDS011;6553;48.412;9.514;2023-07-31T05:49:02;1.52;;;1.38;;
12976;SDS011;6553;48.412;9.514;2023-07-31T05:51:28;1.40;;;1.30;;
12976;SDS011;6553;48.412;9.514;2023-07-31T05:53:53;1.58;;;1.48;;
12976;SDS011;6553;48.412;9.514;2023-07-31T05:56:19;1.65;;;1.30;;
12976;SDS011;6553;48.412;9.514;2023-07-31T05:58:45;1.60;;;1.50;;
12976;SDS011;6553;48.412;9.514;2023-07-31T06:01:11;1.55;;;1.20;;
12976;SDS011;6553;48.412;9.514;2023-07-31T06:03:36;2.00;;;1.27;;
12976;SDS011;6553;48.412;9.514;2023-07-31T06:06:02;1.40;;;1.30;;
12976;SDS011;6553;48.412;9.514;2023-07-31T06:08:28;1.80;;;1.27;;
12976;SDS011;6553;48.412;9.514;2023-07-31T06:10:53;1.40;;;1.30;;
12976;SDS011;6553;48.412;9.514;2023-07-31T06:13:19;1.50;;;1.40;;
12976;SDS011;6553;48.412;9.514;2023-07-31T06:15:45;1.33;;;1.23;;
12976;SDS011;6553;48.412;9.514;2023-07-31T06:18:11;1.25;;;1.13;;
12976;SDS011;6553;48.412;9.514;2023-07-31T06:20:36;1.40;;;1.30;;
12976;SDS011;6553;48.412;9.514;2023-07-31T06:23:05;1.13;;;1.00;;
12976;SDS011;6553;48.412;9.514;2023-07-31T06:25:31;1.50;;;1.40;;
12976;SDS011;6553;48.412;9.514;2023-07-31T06:27:57;1.33;;;1.23;;
12976;SDS011;6553;48.412;9.514;2023-07-31T06:30:22;1.30;;;1.20;;
12976;SDS011;6553;48.412;9.514;2023-07-31T06:32:48;1.58;;;1.40;;
12976;SDS011;6553;48.412;9.514;2023-07-31T06:35:14;1.50;;;1.40;;
12976;SDS011;6553;48.412;9.514;2023-07-31T06:37:40;1.42;;;1.33;;
12976;SDS011;6553;48.412;9.514;2023-07-31T06:40:08;1.58;;;1.33;;
12976;SDS011;6553;48.412;9.514;2023-07-31T06:42:35;1.30;;;1.20;;
12976;SDS011;6553;48.412;9.514;2023-07-31T06:45:04;1.65;;;1.52;;
12976;SDS011;6553;48.412;9.514;2023-07-31T06:47:31;1.52;;;1.35;;
12976;SDS011;6553;48.412;9.514;2023-07-31T06:49:57;1.40;;;1.30;;
12976;SDS011;6553;48.412;9.514;2023-07-31T06:52:22;1.42;;;1.33;;
12976;SDS011;6553;48.412;9.514;2023-07-31T06:55:00;1.40;;;1.30;;
12976;SDS011;6553;48.412;9.514;2023-07-31T06:57:28;1.40;;;1.30;;
12976;SDS011;6553;48.412;9.514;2023-07-31T06:59:54;1.33;;;1.23;;
12976;SDS011;6553;48.412;9.514;2023-07-31T07:02:20;1.40;;;1.27;;
12976;SDS011;6553;48.412;9.514;2023-07-31T07:04:46;1.35;;;1.30;;
12976;SDS011;6553;48.412;9.514;2023-07-31T07:07:12;1.27;;;1.17;;
12976;SDS011;6553;48.412;9.514;2023-07-31T07:09:37;2.15;;;1.42;;
12976;SDS011;6553;48.412;9.514;2023-07-31T07:12:03;1.50;;;1.40;;
12976;SDS011;6553;48.412;9.514;2023-07-31T07:14:29;2.05;;;1.20;;
12976;SDS011;6553;48.412;9.514;2023-07-31T07:16:55;2.10;;;1.45;;
12976;SDS011;6553;48.412;9.514;2023-07-31T07:19:21;1.25;;;1.20;;
12976;SDS011;6553;48.412;9.514;2023-07-31T07:21:47;2.22;;;1.35;;
12976;SDS011;6553;48.412;9.514;2023-07-31T07:24:12;1.52;;;1.33;;
12976;SDS011;6553;48.412;9.514;2023-07-31T07:26:38;1.27;;;1.20;;
12976;SDS011;6553;48.412;9.514;2023-07-31T07:29:04;2.33;;;1.50;;
12976;SDS011;6553;48.412;9.514;2023-07-31T07:31:33;2.03;;;1.50;;
12976;SDS011;6553;48.412;9.514;2023-07-31T07:33:58;1.58;;;1.48;;
12976;SDS011;6553;48.412;9.514;2023-07-31T07:36:24;1.20;;;1.10;;
12976;SDS011;6553;48.412;9.514;2023-07-31T07:38:53;1.38;;;1.27;;
12976;SDS011;6553;48.412;9.514;2023-07-31T07:41:18;1.75;;;1.50;;
12976;SDS011;6553;48.412;9.514;2023-07-31T07:43:44;1.33;;;1.20;;
12976;SDS011;6553;48.412;9.514;2023-07-31T07:46:10;1.33;;;1.23;;
12976;SDS011;6553;48.412;9.514;2023-07-31T07:48:35;1.40;;;1.25;;
12976;SDS011;6553;48.412;9.514;2023-07-31T07:51:01;1.35;;;1.20;;
12976;SDS011;6553;48.412;9.514;2023-07-31T07:53:27;1.40;;;1.30;;
12976;SDS011;6553;48.412;9.514;2023-07-31T07:55:53;1.70;;;1.55;;
12976;SDS011;6553;48.412;9.514;2023-07-31T07:58:18;1.52;;;1.42;;
12976;SDS011;6553;48.412;9.514;2023-07-31T08:00:50;1.52;;;1.38;;
12976;SDS011;6553;48.412;9.514;2023-07-31T08:03:17;2.10;;;1.23;;
12976;SDS011;6553;48.412;9.514;2023-07-31T08:05:43;1.80;;;1.70;;
12976;SDS011;6553;48.412;9.514;2023-07-31T08:08:13;1.80;;;1.60;;
12976;SDS011;6553;48.412;9.514;2023-07-31T08:10:43;2.20;;;1.42;;
12976;SDS011;6553;48.412;9.514;2023-07-31T08:13:09;2.72;;;1.38;;
12976;SDS011;6553;48.412;9.514;2023-07-31T08:15:37;2.03;;;1.60;;
12976;SDS011;6553;48.412;9.514;2023-07-31T08:18:02;1.60;;;1.40;;
12976;SDS011;6553;48.412;9.514;2023-07-31T08:20:28;1.73;;;1.55;;
12976;SDS011;6553;48.412;9.514;2023-07-31T08:22:54;2.10;;;1.70;;
12976;SDS011;6553;48.412;9.514;2023-07-31T08:25:20;2.13;;;1.48;;
12976;SDS011;6553;48.412;9.514;2023-07-31T08:27:45;3.25;;;1.60;;
12976;SDS011;6553;48.412;9.514;2023-07-31T08:30:11;2.83;;;1.70;;
12976;SDS011;6553;48.412;9.514;2023-07-31T08:32:37;1.83;;;1.42;;
12976;SDS011;6553;48.412;9.514;2023-07-31T08:35:03;1.75;;;1.65;;
12976;SDS011;6553;48.412;9.514;2023-07-31T08:37:29;4.32;;;1.80;;
12976;SDS011;6553;48.412;9.514;2023-07-31T08:39:55;2.78;;;1.55;;
12976;SDS011;6553;48.412;9.514;2023-07-31T08:42:21;1.85;;;1.35;;
12976;SDS011;6553;48.412;9.514;2023-07-31T08:44:47;3.45;;;1.75;;
12976;SDS011;6553;48.412;9.514;2023-07-31T08:47:13;1.92;;;1.60;;
12976;SDS011;6553;48.412;9.514;2023-07-31T08:49:41;2.38;;;1.80;;
12976;SDS011;6553;48.412;9.514;2023-07-31T08:52:08;2.15;;;1.88;;
12976;SDS011;6553;48.412;9.514;2023-07-31T08:54:35;2.25;;;1.70;;
12976;SDS011;6553;48.412;9.514;2023-07-31T08:57:00;1.67;;;1.40;;
12976;SDS011;6553;48.412;9.514;2023-07-31T08:59:30;3.08;;;1.60;;
12976;SDS011;6553;48.412;9.514;2023-07-31T09:02:01;3.55;;;1.45;;
12976;SDS011;6553;48.412;9.514;2023-07-31T09:04:32;3.63;;;1.85;;
12976;SDS011;6553;48.412;9.514;2023-07-31T09:07:02;2.13;;;1.77;;
12976;SDS011;6553;48.412;9.514;2023-07-31T09:09:30;1.90;;;1.80;;
12976;SDS011;6553;48.412;9.514;2023-07-31T09:11:57;2.90;;;1.52;;
12976;SDS011;6553;48.412;9.514;2023-07-31T09:14:24;3.00;;;1.60;;
12976;SDS011;6553;48.412;9.514;2023-07-31T09:16:52;2.17;;;1.50;;
12976;SDS011;6553;48.412;9.514;2023-07-31T09:19:27;2.10;;;1.50;;
12976;SDS011;6553;48.412;9.514;2023-07-31T09:22:04;4.15;;;1.77;;
12976;SDS011;6553;48.412;9.514;2023-07-31T09:24:32;2.45;;;1.52;;
12976;SDS011;6553;48.412;9.514;2023-07-31T09:27:00;2.20;;;1.65;;
12976;SDS011;6553;48.412;9.514;2023-07-31T09:29:27;2.53;;;1.70;;
12976;SDS011;6553;48.412;9.514;2023-07-31T09:31:55;2.47;;;1.50;;
12976;SDS011;6553;48.412;9.514;2023-07-31T09:34:28;5.78;;;2.00;;
12976;SDS011;6553;48.412;9.514;2023-07-31T09:37:11;4.78;;;1.90;;
12976;SDS011;6553;48.412;9.514;2023-07-31T09:39:47;2.33;;;1.75;;
12976;SDS011;6553;48.412;9.514;2023-07-31T09:42:13;2.20;;;1.90;;
12976;SDS011;6553;48.412;9.514;2023-07-31T09:44:39;2.28;;;1.52;;
12976;SDS011;6553;48.412;9.514;2023-07-31T09:47:06;2.17;;;1.70;;
12976;SDS011;6553;48.412;9.514;2023-07-31T09:49:45;3.00;;;1.63;;
12976;SDS011;6553;48.412;9.514;2023-07-31T09:52:11;2.10;;;1.50;;
12976;SDS011;6553;48.412;9.514;2023-07-31T09:54:38;2.53;;;1.48;;
12976;SDS011;6553;48.412;9.514;2023-07-31T09:57:04;3.90;;;1.63;;
12976;SDS011;6553;48.412;9.514;2023-07-31T09:59:30;2.60;;;1.60;;
12976;SDS011;6553;48.412;9.514;2023-07-31T10:01:56;2.92;;;1.70;;
12976;SDS011;6553;48.412;9.514;2023-07-31T10:04:22;4.78;;;2.03;;
12976;SDS011;6553;48.412;9.514;2023-07-31T10:06:52;2.70;;;1.92;;
12976;SDS011;6553;48.412;9.514;2023-07-31T10:09:19;2.10;;;1.55;;
12976;SDS011;6553;48.412;9.514;2023-07-31T10:11:53;2.10;;;1.80;;
12976;SDS011;6553;48.412;9.514;2023-07-31T10:14:25;3.03;;;1.70;;
12976;SDS011;6553;48.412;9.514;2023-07-31T10:16:53;3.17;;;1.70;;
12976;SDS011;6553;48.412;9.514;2023-07-31T10:19:20;2.08;;;1.55;;
12976;SDS011;6553;48.412;9.514;2023-07-31T10:21:48;3.63;;;1.80;;
12976;SDS011;6553;48.412;9.514;2023-07-31T10:24:14;4.38;;;1.73;;
12976;SDS011;6553;48.412;9.514;2023-07-31T10:26:41;3.00;;;1.90;;
12976;SDS011;6553;48.412;9.514;2023-07-31T10:29:14;1.88;;;1.42;;
12976;SDS011;6553;48.412;9.514;2023-07-31T10:31:43;2.08;;;1.88;;
12976;SDS011;6553;48.412;9.514;2023-07-31T10:34:10;6.28;;;1.90;;
12976;SDS011;6553;48.412;9.514;2023-07-31T10:36:36;2.70;;;2.00;;
12976;SDS011;6553;48.412;9.514;2023-07-31T10:39:03;2.15;;;1.65;;
12976;SDS011;6553;48.412;9.514;2023-07-31T10:41:29;3.67;;;1.90;;
12976;SDS011;6553;48.412;9.514;2023-07-31T10:44:00;2.30;;;1.60;;
12976;SDS011;6553;48.412;9.514;2023-07-31T10:46:29;2.78;;;1.58;;
12976;SDS011;6553;48.412;9.514;2023-07-31T10:48:59;3.17;;;1.98;;
12976;SDS011;6553;48.412;9.514;2023-07-31T10:51:36;2.92;;;1.70;;
12976;SDS011;6553;48.412;9.514;2023-07-31T10:54:15;1.77;;;1.67;;
12976;SDS011;6553;48.412;9.514;2023-07-31T10:56:46;2.38;;;1.60;;
12976;SDS011;6553;48.412;9.514;2023-07-31T10:59:15;3.50;;;1.75;;
12976;SDS011;6553;48.412;9.514;2023-07-31T11:01:58;3.50;;;1.73;;
12976;SDS011;6553;48.412;9.514;2023-07-31T11:04:27;3.25;;;1.67;;
12976;SDS011;6553;48.412;9.514;2023-07-31T11:07:00;2.25;;;1.35;;
12976;SDS011;6553;48.412;9.514;2023-07-31T11:09:31;1.98;;;1.60;;
12976;SDS011;6553;48.412;9.514;2023-07-31T11:11:58;1.70;;;1.60;;
12976;SDS011;6553;48.412;9.514;2023-07-31T11:14:25;3.25;;;1.85;;
12976;SDS011;6553;48.412;9.514;2023-07-31T11:16:51;2.40;;;1.80;;
12976;SDS011;6553;48.412;9.514;2023-07-31T11:19:23;3.05;;;2.00;;
12976;SDS011;6553;48.412;9.514;2023-07-31T11:21:53;3.78;;;2.10;;
12976;SDS011;6553;48.412;9.514;2023-07-31T11:24:19;2.55;;;1.90;;
12976;SDS011;6553;48.412;9.514;2023-07-31T11:26:49;2.50;;;1.75;;
12976;SDS011;6553;48.412;9.514;2023-07-31T11:29:19;1.80;;;1.58;;
12976;SDS011;6553;48.412;9.514;2023-07-31T11:31:46;2.78;;;1.80;;
12976;SDS011;6553;48.412;9.514;2023-07-31T11:34:12;2.58;;;1.52;;
12976;SDS011;6553;48.412;9.514;2023-07-31T11:36:38;4.15;;;1.92;;
12976;SDS011;6553;48.412;9.514;2023-07-31T11:39:05;1.92;;;1.73;;
12976;SDS011;6553;48.412;9.514;2023-07-31T11:41:33;2.35;;;1.60;;
12976;SDS011;6553;48.412;9.514;2023-07-31T11:43:59;3.45;;;1.70;;
12976;SDS011;6553;48.412;9.514;2023-07-31T11:46:26;2.10;;;1.90;;
12976;SDS011;6553;48.412;9.514;2023-07-31T11:48:58;3.60;;;1.98;;
12976;SDS011;6553;48.412;9.514;2023-07-31T11:51:25;3.05;;;1.77;;
12976;SDS011;6553;48.412;9.514;2023-07-31T11:53:55;3.67;;;1.77;;
12976;SDS011;6553;48.412;9.514;2023-07-31T11:56:25;3.30;;;1.88;;
12976;SDS011;6553;48.412;9.514;2023-07-31T11:58:58;2.45;;;1.90;;
12976;SDS011;6553;48.412;9.514;2023-07-31T12:01:28;2.97;;;2.17;;
12976;SDS011;6553;48.412;9.514;2023-07-31T12:03:54;2.35;;;1.85;;
12976;SDS011;6553;48.412;9.514;2023-07-31T12:06:21;2.53;;;1.65;;
12976;SDS011;6553;48.412;9.514;2023-07-31T12:09:02;2.35;;;2.05;;
12976;SDS011;6553;48.412;9.514;2023-07-31T12:11:29;3.00;;;1.88;;
12976;SDS011;6553;48.412;9.514;2023-07-31T12:13:56;2.50;;;1.90;;
12976;SDS011;6553;48.412;9.514;2023-07-31T12:16:25;2.65;;;1.75;;
12976;SDS011;6553;48.412;9.514;2023-07-31T12:18:52;2.33;;;1.55;;
12976;SDS011;6553;48.412;9.514;2023-07-31T12:21:18;3.50;;;2.08;;
12976;SDS011;6553;48.412;9.514;2023-07-31T12:23:45;2.60;;;1.83;;
12976;SDS011;6553;48.412;9.514;2023-07-31T12:26:12;2.85;;;1.98;;
12976;SDS011;6553;48.412;9.514;2023-07-31T12:28:44;2.17;;;1.70;;
12976;SDS011;6553;48.412;9.514;2023-07-31T12:31:21;2.58;;;1.90;;
12976;SDS011;6553;48.412;9.514;2023-07-31T12:33:48;2.90;;;2.00;;
12976;SDS011;6553;48.412;9.514;2023-07-31T12:36:17;2.55;;;1.95;;
12976;SDS011;6553;48.412;9.514;2023-07-31T12:38:46;3.15;;;1.70;;
12976;SDS011;6553;48.412;9.514;2023-07-31T12:41:12;2.03;;;1.55;;
12976;SDS011;6553;48.412;9.514;2023-07-31T12:43:39;5.68;;;3.92;;
12976;SDS011;6553;48.412;9.514;2023-07-31T12:46:07;3.15;;;2.85;;
12976;SDS011;6553;48.412;9.514;2023-07-31T12:48:33;3.70;;;2.58;;
12976;SDS011;6553;48.412;9.514;2023-07-31T12:50:59;4.00;;;2.35;;
12976;SDS011;6553;48.412;9.514;2023-07-31T12:53:26;2.90;;;2.13;;
12976;SDS011;6553;48.412;9.514;2023-07-31T12:55:52;3.83;;;2.13;;
12976;SDS011;6553;48.412;9.514;2023-07-31T12:58:19;2.65;;;2.08;;
12976;SDS011;6553;48.412;9.514;2023-07-31T13:00:45;3.05;;;1.90;;
12976;SDS011;6553;48.412;9.514;2023-07-31T13:03:11;2.70;;;1.90;;
12976;SDS011;6553;48.412;9.514;2023-07-31T13:05:37;2.25;;;2.05;;
12976;SDS011;6553;48.412;9.514;2023-07-31T13:08:02;3.75;;;2.47;;
12976;SDS011;6553;48.412;9.514;2023-07-31T13:10:28;2.55;;;2.10;;
12976;SDS011;6553;48.412;9.514;2023-07-31T13:12:55;2.92;;;1.85;;
12976;SDS011;6553;48.412;9.514;2023-07-31T13:15:21;2.58;;;1.83;;
12976;SDS011;6553;48.412;9.514;2023-07-31T13:17:47;2.95;;;2.28;;
12976;SDS011;6553;48.412;9.514;2023-07-31T13:20:13;3.10;;;2.10;;
12976;SDS011;6553;48.412;9.514;2023-07-31T13:22:39;2.60;;;2.25;;
12976;SDS011;6553;48.412;9.514;2023-07-31T13:25:05;2.63;;;2.10;;
12976;SDS011;6553;48.412;9.514;2023-07-31T13:27:31;3.88;;;2.10;;
12976;SDS011;6553;48.412;9.514;2023-07-31T13:29:57;2.70;;;2.10;;
12976;SDS011;6553;48.412;9.514;2023-07-31T13:32:23;2.42;;;1.98;;
12976;SDS011;6553;48.412;9.514;2023-07-31T13:34:49;4.18;;;2.22;;
12976;SDS011;6553;48.412;9.514;2023-07-31T13:37:15;2.42;;;1.88;;
12976;SDS011;6553;48.412;9.514;2023-07-31T13:39:40;3.00;;;1.70;;
12976;SDS011;6553;48.412;9.514;2023-07-31T13:42:07;2.95;;;2.00;;
12976;SDS011;6553;48.412;9.514;2023-07-31T13:44:34;2.65;;;1.77;;
12976;SDS011;6553;48.412;9.514;2023-07-31T13:47:00;2.22;;;1.95;;
12976;SDS011;6553;48.412;9.514;2023-07-31T13:49:27;2.13;;;1.88;;
12976;SDS011;6553;48.412;9.514;2023-07-31T13:51:53;2.58;;;1.98;;
12976;SDS011;6553;48.412;9.514;2023-07-31T13:54:19;3.25;;;2.05;;
12976;SDS011;6553;48.412;9.514;2023-07-31T13:56:45;3.58;;;2.20;;
12976;SDS011;6553;48.412;9.514;2023-07-31T13:59:11;3.15;;;2.15;;
12976;SDS011;6553;48.412;9.514;2023-07-31T14:01:37;2.80;;;2.03;;
12976;SDS011;6553;48.412;9.514;2023-07-31T14:04:02;2.22;;;1.80;;
12976;SDS011;6553;48.412;9.514;2023-07-31T14:06:28;2.97;;;2.10;;
12976;SDS011;6553;48.412;9.514;2023-07-31T14:08:54;2.58;;;2.35;;
12976;SDS011;6553;48.412;9.514;2023-07-31T14:11:21;2.72;;;2.00;;
12976;SDS011;6553;48.412;9.514;2023-07-31T14:13:50;4.63;;;1.95;;
12976;SDS011;6553;48.412;9.514;2023-07-31T14:16:16;2.45;;;1.90;;
12976;SDS011;6553;48.412;9.514;2023-07-31T14:18:42;3.70;;;2.05;;
12976;SDS011;6553;48.412;9.514;2023-07-31T14:21:08;3.28;;;2.33;;
12976;SDS011;6553;48.412;9.514;2023-07-31T14:23:34;4.63;;;2.08;;
12976;SDS011;6553;48.412;9.514;2023-07-31T14:26:00;3.20;;;2.17;;
12976;SDS011;6553;48.412;9.514;2023-07-31T14:28:25;3.70;;;2.03;;
12976;SDS011;6553;48.412;9.514;2023-07-31T14:30:51;3.30;;;2.45;;
12976;SDS011;6553;48.412;9.514;2023-07-31T14:33:17;2.92;;;2.22;;
12976;SDS011;6553;48.412;9.514;2023-07-31T14:35:43;2.63;;;1.98;;
12976;SDS011;6553;48.412;9.514;2023-07-31T14:38:09;3.90;;;2.65;;
12976;SDS011;6553;48.412;9.514;2023-07-31T14:40:34;3.35;;;2.00;;
12976;SDS011;6553;48.412;9.514;2023-07-31T14:43:01;2.60;;;2.38;;
12976;SDS011;6553;48.412;9.514;2023-07-31T14:45:27;3.22;;;2.30;;
12976;SDS011;6553;48.412;9.514;2023-07-31T14:47:52;2.85;;;2.25;;
12976;SDS011;6553;48.412;9.514;2023-07-31T14:50:19;3.45;;;2.00;;
12976;SDS011;6553;48.412;9.514;2023-07-31T14:52:46;3.92;;;2.10;;
12976;SDS011;6553;48.412;9.514;2023-07-31T14:55:13;2.40;;;2.10;;
12976;SDS011;6553;48.412;9.514;2023-07-31T14:57:38;3.42;;;1.90;;
12976;SDS011;6553;48.412;9.514;2023-07-31T15:00:04;4.05;;;2.15;;
12976;SDS011;6553;48.412;9.514;2023-07-31T15:02:36;2.10;;;1.90;;
12976;SDS011;6553;48.412;9.514;2023-07-31T15:05:05;4.05;;;2.20;;
12976;SDS011;6553;48.412;9.514;2023-07-31T15:07:32;3.05;;;2.10;;